sensor_id;sensor_type;location;lat;lon;timestamp;pressure;altitude;pressure_sealevel;temperature;humidity
44198;BME280;30157;55.512;37.764;2023-08-06T00:00:57;100238.03;;;21.59;71.11
44198;BME280;30157;55.512;37.764;2023-08-06T00:03:23;100196.75;;;21.36;71.47
44198;BME280;30157;55.512;37.764;2023-08-06T00:05:49;100254.28;;;21.70;71.24
44198;BME280;30157;55.512;37.764;2023-08-06T00:08:14;100196.91;;;21.33;72.38
44198;BME280;30157;55.512;37.764;2023-08-06T00:10:40;100216.09;;;21.36;73.00
44198;BME280;30157;55.512;37.764;2023-08-06T00:13:07;100276.38;;;21.68;73.31
44198;BME280;30157;55.512;37.764;2023-08-06T00:15:33;100277.63;;;21.59;73.58
44198;BME280;30157;55.512;37.764;2023-08-06T00:17:58;100257.09;;;21.45;74.13
44198;BME280;30157;55.512;37.764;2023-08-06T00:20:24;100258.22;;;21.39;74.40
44198;BME280;30157;55.512;37.764;2023-08-06T00:22:50;100272.44;;;21.35;74.23
44198;BME280;30157;55.512;37.764;2023-08-06T00:25:16;100188.22;;;20.88;74.31
44198;BME280;30157;55.512;37.764;2023-08-06T00:27:42;100263.81;;;21.31;74.39
44198;BME280;30157;55.512;37.764;2023-08-06T00:30:08;100259.91;;;21.20;74.67
44198;BME280;30157;55.512;37.764;2023-08-06T00:32:35;100284.31;;;21.25;74.65
44198;BME280;30157;55.512;37.764;2023-08-06T00:35:01;100278.63;;;21.13;75.20
44198;BME280;30157;55.512;37.764;2023-08-06T00:37:27;100210.06;;;20.69;74.70
44198;BME280;30157;55.512;37.764;2023-08-06T00:39:52;100214.44;;;20.70;75.59
44198;BME280;30157;55.512;37.764;2023-08-06T00:42:18;100279.81;;;21.06;75.71
44198;BME280;30157;55.512;37.764;2023-08-06T00:44:46;100286.97;;;21.03;75.97
44198;BME280;30157;55.512;37.764;2023-08-06T00:47:12;100195.22;;;20.44;75.87
44198;BME280;30157;55.512;37.764;2023-08-06T00:49:39;100288.28;;;20.92;76.24
44198;BME280;30157;55.512;37.764;2023-08-06T00:52:05;100271.31;;;20.77;77.47
44198;BME280;30157;55.512;37.764;2023-08-06T00:54:33;100272.78;;;20.61;77.76
44198;BME280;30157;55.512;37.764;2023-08-06T00:57:01;100283.69;;;20.52;78.70
44198;BME280;30157;55.512;37.764;2023-08-06T00:59:27;100275.41;;;20.39;79.21
44198;BME280;30157;55.512;37.764;2023-08-06T01:01:53;100275.88;;;20.26;80.21
44198;BME280;30157;55.512;37.764;2023-08-06T01:04:19;100279.94;;;20.11;80.64
44198;BME280;30157;55.512;37.764;2023-08-06T01:07:05;100221.00;;;19.65;81.14
44198;BME280;30157;55.512;37.764;2023-08-06T01:12:09;100287.50;;;20.21;80.33
44198;BME280;30157;55.512;37.764;2023-08-06T01:14:48;100187.47;;;19.70;80.30
44198;BME280;30157;55.512;37.764;2023-08-06T01:17:17;100257.72;;;20.19;80.37
44198;BME280;30157;55.512;37.764;2023-08-06T01:19:43;100225.31;;;19.93;80.17
44198;BME280;30157;55.512;37.764;2023-08-06T01:22:08;100284.25;;;20.14;80.78
44198;BME280;30157;55.512;37.764;2023-08-06T01:24:34;100223.50;;;19.68;81.53
44198;BME280;30157;55.512;37.764;2023-08-06T01:27:09;100223.69;;;19.63;82.50
44198;BME280;30157;55.512;37.764;2023-08-06T01:29:45;100238.66;;;19.61;82.73
44198;BME280;30157;55.512;37.764;2023-08-06T01:32:14;100281.72;;;19.86;82.46
44198;BME280;30157;55.512;37.764;2023-08-06T01:34:41;100282.59;;;19.86;82.73
44198;BME280;30157;55.512;37.764;2023-08-06T01:37:10;100206.47;;;19.29;82.56
44198;BME280;30157;55.512;37.764;2023-08-06T01:39:36;100259.69;;;19.63;82.98
44198;BME280;30157;55.512;37.764;2023-08-06T01:42:03;100261.75;;;19.55;83.19
44198;BME280;30157;55.512;37.764;2023-08-06T01:44:29;100291.94;;;19.70;83.42
44198;BME280;30157;55.512;37.764;2023-08-06T01:46:55;100268.13;;;19.47;83.72
44198;BME280;30157;55.512;37.764;2023-08-06T01:49:21;100298.00;;;19.72;83.57
44198;BME280;30157;55.512;37.764;2023-08-06T01:51:47;100296.88;;;19.80;83.09
44198;BME280;30157;55.512;37.764;2023-08-06T01:54:13;100230.47;;;19.45;82.31
44198;BME280;30157;55.512;37.764;2023-08-06T01:56:38;100290.28;;;19.92;81.93
44198;BME280;30157;55.512;37.764;2023-08-06T01:59:04;100304.63;;;20.09;81.62
44198;BME280;30157;55.512;37.764;2023-08-06T02:01:30;100112.59;;;19.05;80.85
44198;BME280;30157;55.512;37.764;2023-08-06T02:03:56;100159.84;;;19.33;80.85
44198;BME280;30157;55.512;37.764;2023-08-06T02:06:21;100305.84;;;20.24;80.67
44198;BME280;30157;55.512;37.764;2023-08-06T02:08:47;100315.56;;;20.22;80.62
44198;BME280;30157;55.512;37.764;2023-08-06T02:11:15;100310.34;;;20.20;80.84
44198;BME280;30157;55.512;37.764;2023-08-06T02:13:41;100289.72;;;20.08;80.66
44198;BME280;30157;55.512;37.764;2023-08-06T02:16:07;100312.00;;;20.23;80.71
44198;BME280;30157;55.512;37.764;2023-08-06T02:18:36;100313.81;;;20.22;80.88
44198;BME280;30157;55.512;37.764;2023-08-06T02:21:02;100318.19;;;20.22;80.66
44198;BME280;30157;55.512;37.764;2023-08-06T02:23:29;100288.00;;;20.07;80.81
44198;BME280;30157;55.512;37.764;2023-08-06T02:26:04;100304.50;;;20.12;80.49
44198;BME280;30157;55.512;37.764;2023-08-06T02:28:31;100322.34;;;20.29;80.39
44198;BME280;30157;55.512;37.764;2023-08-06T02:30:57;100269.00;;;19.98;80.29
44198;BME280;30157;55.512;37.764;2023-08-06T02:33:24;100249.78;;;19.95;80.43
44198;BME280;30157;55.512;37.764;2023-08-06T02:35:49;100307.25;;;20.33;80.01
44198;BME280;30157;55.512;37.764;2023-08-06T02:38:16;100309.53;;;20.42;79.71
44198;BME280;30157;55.512;37.764;2023-08-06T02:40:45;100324.88;;;20.54;79.52
44198;BME280;30157;55.512;37.764;2023-08-06T02:43:12;100300.94;;;20.37;79.34
44198;BME280;30157;55.512;37.764;2023-08-06T02:45:38;100318.06;;;20.48;79.35
44198;BME280;30157;55.512;37.764;2023-08-06T02:48:05;100330.78;;;20.61;79.37
44198;BME280;30157;55.512;37.764;2023-08-06T02:50:37;100295.38;;;20.44;79.29
44198;BME280;30157;55.512;37.764;2023-08-06T02:53:02;100321.34;;;20.79;79.26
44198;BME280;30157;55.512;37.764;2023-08-06T02:55:28;100317.50;;;21.10;78.13
44198;BME280;30157;55.512;37.764;2023-08-06T02:57:54;100328.59;;;21.39;77.68
44198;BME280;30157;55.512;37.764;2023-08-06T03:00:20;100311.03;;;21.60;76.73
44198;BME280;30157;55.512;37.764;2023-08-06T03:02:46;100328.28;;;21.89;76.25
44198;BME280;30157;55.512;37.764;2023-08-06T03:05:21;100325.53;;;22.11;75.60
44198;BME280;30157;55.512;37.764;2023-08-06T03:07:47;100148.81;;;21.26;74.61
44198;BME280;30157;55.512;37.764;2023-08-06T03:10:19;100316.31;;;22.41;73.68
44198;BME280;30157;55.512;37.764;2023-08-06T03:12:46;100250.84;;;22.27;72.60
44198;BME280;30157;55.512;37.764;2023-08-06T03:15:12;100246.47;;;22.45;72.80
44198;BME280;30157;55.512;37.764;2023-08-06T03:17:40;100320.41;;;23.04;71.87
44198;BME280;30157;55.512;37.764;2023-08-06T03:20:08;100321.59;;;23.15;71.66
44198;BME280;30157;55.512;37.764;2023-08-06T03:22:35;100319.31;;;23.44;70.80
44198;BME280;30157;55.512;37.764;2023-08-06T03:25:01;100305.22;;;23.61;69.84
44198;BME280;30157;55.512;37.764;2023-08-06T03:27:30;100281.28;;;23.63;69.87
44198;BME280;30157;55.512;37.764;2023-08-06T03:29:56;100318.47;;;24.12;69.93
44198;BME280;30157;55.512;37.764;2023-08-06T03:32:26;100315.13;;;24.42;68.83
44198;BME280;30157;55.512;37.764;2023-08-06T03:34:52;100286.28;;;24.52;68.13
44198;BME280;30157;55.512;37.764;2023-08-06T03:37:20;100291.19;;;24.76;67.41
44198;BME280;30157;55.512;37.764;2023-08-06T03:39:45;100316.41;;;25.15;66.64
44198;BME280;30157;55.512;37.764;2023-08-06T03:42:11;100274.06;;;25.12;65.61
44198;BME280;30157;55.512;37.764;2023-08-06T03:44:37;100301.16;;;25.49;64.40
44198;BME280;30157;55.512;37.764;2023-08-06T03:47:03;100323.91;;;25.83;63.98
44198;BME280;30157;55.512;37.764;2023-08-06T03:49:29;100294.94;;;25.93;62.19
44198;BME280;30157;55.512;37.764;2023-08-06T03:51:55;100284.34;;;26.08;61.67
44198;BME280;30157;55.512;37.764;2023-08-06T03:54:21;100318.41;;;26.44;60.58
44198;BME280;30157;55.512;37.764;2023-08-06T03:56:47;100310.31;;;26.60;60.28
44198;BME280;30157;55.512;37.764;2023-08-06T03:59:13;100293.19;;;26.64;59.80
44198;BME280;30157;55.512;37.764;2023-08-06T04:01:39;100315.19;;;26.95;59.69
44198;BME280;30157;55.512;37.764;2023-08-06T04:04:05;100313.88;;;27.15;58.57
44198;BME280;30157;55.512;37.764;2023-08-06T04:06:30;100312.50;;;27.36;57.66
44198;BME280;30157;55.512;37.764;2023-08-06T04:08:57;100312.91;;;27.57;57.21
44198;BME280;30157;55.512;37.764;2023-08-06T04:11:23;100306.66;;;27.71;56.85
44198;BME280;30157;55.512;37.764;2023-08-06T04:13:48;100309.59;;;27.92;55.96
44198;BME280;30157;55.512;37.764;2023-08-06T04:16:14;100306.88;;;28.06;55.63
44198;BME280;30157;55.512;37.764;2023-08-06T04:18:41;100308.34;;;28.23;54.85
44198;BME280;30157;55.512;37.764;2023-08-06T04:21:06;100284.22;;;28.25;53.61
44198;BME280;30157;55.512;37.764;2023-08-06T04:23:32;100257.75;;;28.22;53.85
44198;BME280;30157;55.512;37.764;2023-08-06T04:26:02;100298.09;;;28.67;53.05
44198;BME280;30157;55.512;37.764;2023-08-06T04:28:32;100308.41;;;28.85;52.48
44198;BME280;30157;55.512;37.764;2023-08-06T04:30:59;100295.03;;;28.85;52.40
44198;BME280;30157;55.512;37.764;2023-08-06T04:33:25;100234.34;;;28.62;52.21
44198;BME280;30157;55.512;37.764;2023-08-06T04:35:56;100305.03;;;29.18;51.16
44198;BME280;30157;55.512;37.764;2023-08-06T04:38:24;100234.25;;;28.88;50.54
44198;BME280;30157;55.512;37.764;2023-08-06T04:40:54;100244.44;;;28.94;49.86
44198;BME280;30157;55.512;37.764;2023-08-06T04:43:21;100282.19;;;29.14;49.77
44198;BME280;30157;55.512;37.764;2023-08-06T04:45:50;100226.56;;;28.83;50.48
44198;BME280;30157;55.512;37.764;2023-08-06T04:48:17;100289.59;;;29.46;50.46
44198;BME280;30157;55.512;37.764;2023-08-06T04:50:44;100299.84;;;29.75;49.93
44198;BME280;30157;55.512;37.764;2023-08-06T04:53:10;100305.13;;;29.99;48.86
44198;BME280;30157;55.512;37.764;2023-08-06T04:55:36;100300.38;;;29.91;48.67
44198;BME280;30157;55.512;37.764;2023-08-06T04:58:02;100297.47;;;30.06;48.60
44198;BME280;30157;55.512;37.764;2023-08-06T05:00:28;100299.66;;;30.35;48.30
44198;BME280;30157;55.512;37.764;2023-08-06T05:02:53;100227.91;;;29.94;48.34
44198;BME280;30157;55.512;37.764;2023-08-06T05:05:19;100294.13;;;30.59;47.02
44198;BME280;30157;55.512;37.764;2023-08-06T05:07:48;100269.53;;;30.65;46.94
44198;BME280;30157;55.512;37.764;2023-08-06T05:10:14;100228.75;;;30.61;46.74
44198;BME280;30157;55.512;37.764;2023-08-06T05:12:39;100272.47;;;31.06;46.35
44198;BME280;30157;55.512;37.764;2023-08-06T05:15:05;100277.91;;;31.15;46.19
44198;BME280;30157;55.512;37.764;2023-08-06T05:17:31;100276.91;;;31.16;46.02
44198;BME280;30157;55.512;37.764;2023-08-06T05:19:57;100260.72;;;31.18;46.35
44198;BME280;30157;55.512;37.764;2023-08-06T05:22:23;100281.34;;;31.60;44.92
44198;BME280;30157;55.512;37.764;2023-08-06T05:24:49;100228.75;;;31.26;44.66
44198;BME280;30157;55.512;37.764;2023-08-06T05:27:14;100200.69;;;31.30;44.56
44198;BME280;30157;55.512;37.764;2023-08-06T05:29:40;100253.34;;;31.83;44.51
44198;BME280;30157;55.512;37.764;2023-08-06T05:32:06;100283.81;;;32.13;44.11
44198;BME280;30157;55.512;37.764;2023-08-06T05:34:32;100277.28;;;32.37;43.62
44198;BME280;30157;55.512;37.764;2023-08-06T05:36:58;100226.47;;;32.14;43.33
44198;BME280;30157;55.512;37.764;2023-08-06T05:39:23;100286.38;;;32.56;43.01
44198;BME280;30157;55.512;37.764;2023-08-06T05:41:50;100225.56;;;31.94;43.24
44198;BME280;30157;55.512;37.764;2023-08-06T05:44:16;100274.91;;;32.63;42.88
44198;BME280;30157;55.512;37.764;2023-08-06T05:46:41;100272.06;;;32.36;43.26
44198;BME280;30157;55.512;37.764;2023-08-06T05:49:07;100221.44;;;32.21;43.38
44198;BME280;30157;55.512;37.764;2023-08-06T05:51:33;100273.69;;;32.97;42.51
44198;BME280;30157;55.512;37.764;2023-08-06T05:54:00;100219.09;;;32.96;42.35
44198;BME280;30157;55.512;37.764;2023-08-06T05:56:25;100278.63;;;33.50;42.22
44198;BME280;30157;55.512;37.764;2023-08-06T05:58:51;100252.75;;;33.40;41.94
44198;BME280;30157;55.512;37.764;2023-08-06T06:01:19;100281.56;;;34.05;41.30
44198;BME280;30157;55.512;37.764;2023-08-06T06:03:45;100272.84;;;34.21;40.41
44198;BME280;30157;55.512;37.764;2023-08-06T06:06:12;100274.25;;;34.53;40.42
44198;BME280;30157;55.512;37.764;2023-08-06T06:08:38;100204.81;;;34.46;39.70
44198;BME280;30157;55.512;37.764;2023-08-06T06:11:04;100265.50;;;35.05;39.57
44198;BME280;30157;55.512;37.764;2023-08-06T06:13:30;100264.69;;;35.30;38.62
44198;BME280;30157;55.512;37.764;2023-08-06T06:15:56;100253.47;;;34.99;37.65
44198;BME280;30157;55.512;37.764;2023-08-06T06:18:22;100265.84;;;34.83;38.33
44198;BME280;30157;55.512;37.764;2023-08-06T06:20:48;100276.22;;;34.96;38.71
44198;BME280;30157;55.512;37.764;2023-08-06T06:23:14;100247.34;;;34.89;37.73
44198;BME280;30157;55.512;37.764;2023-08-06T06:25:43;100266.41;;;35.13;37.92
44198;BME280;30157;55.512;37.764;2023-08-06T06:28:12;100268.63;;;35.36;38.00
44198;BME280;30157;55.512;37.764;2023-08-06T06:30:38;100262.38;;;35.62;37.55
44198;BME280;30157;55.512;37.764;2023-08-06T06:33:04;100259.72;;;35.70;37.01
44198;BME280;30157;55.512;37.764;2023-08-06T06:35:29;100260.25;;;35.74;37.35
44198;BME280;30157;55.512;37.764;2023-08-06T06:37:55;100265.94;;;35.62;37.60
44198;BME280;30157;55.512;37.764;2023-08-06T06:40:21;100256.81;;;35.63;37.04
44198;BME280;30157;55.512;37.764;2023-08-06T06:42:47;100252.91;;;35.58;36.61
44198;BME280;30157;55.512;37.764;2023-08-06T06:45:14;100256.34;;;35.42;36.65
44198;BME280;30157;55.512;37.764;2023-08-06T06:47:40;100249.00;;;35.52;36.71
44198;BME280;30157;55.512;37.764;2023-08-06T06:50:06;100260.06;;;35.67;36.73
44198;BME280;30157;55.512;37.764;2023-08-06T06:52:32;100212.84;;;35.19;37.02
44198;BME280;30157;55.512;37.764;2023-08-06T06:54:58;100254.06;;;35.81;36.57
44198;BME280;30157;55.512;37.764;2023-08-06T06:57:24;100194.25;;;36.03;35.83
44198;BME280;30157;55.512;37.764;2023-08-06T06:59:50;100257.22;;;36.46;35.62
44198;BME280;30157;55.512;37.764;2023-08-06T07:02:16;100250.94;;;36.37;35.00
44198;BME280;30157;55.512;37.764;2023-08-06T07:04:42;100230.53;;;36.00;34.98
44198;BME280;30157;55.512;37.764;2023-08-06T07:07:07;100245.16;;;36.32;34.60
44198;BME280;30157;55.512;37.764;2023-08-06T07:09:33;100255.88;;;36.58;35.11
44198;BME280;30157;55.512;37.764;2023-08-06T07:11:59;100234.91;;;36.01;35.79
44198;BME280;30157;55.512;37.764;2023-08-06T07:14:25;100183.34;;;35.78;34.59
44198;BME280;30157;55.512;37.764;2023-08-06T07:16:51;100253.38;;;36.14;34.29
44198;BME280;30157;55.512;37.764;2023-08-06T07:19:17;100230.19;;;36.46;33.51
44198;BME280;30157;55.512;37.764;2023-08-06T07:21:43;100247.94;;;36.57;33.76
44198;BME280;30157;55.512;37.764;2023-08-06T07:24:09;100251.81;;;36.46;33.73
44198;BME280;30157;55.512;37.764;2023-08-06T07:26:35;100194.31;;;36.19;32.87
44198;BME280;30157;55.512;37.764;2023-08-06T07:29:01;100221.75;;;35.98;33.50
44198;BME280;30157;55.512;37.764;2023-08-06T07:31:27;100243.81;;;35.85;34.43
44198;BME280;30157;55.512;37.764;2023-08-06T07:33:53;100249.16;;;36.20;34.29
44198;BME280;30157;55.512;37.764;2023-08-06T07:36:18;100241.75;;;36.22;34.67
44198;BME280;30157;55.512;37.764;2023-08-06T07:38:44;100215.88;;;36.11;34.12
44198;BME280;30157;55.512;37.764;2023-08-06T07:41:10;100225.63;;;36.38;34.27
44198;BME280;30157;55.512;37.764;2023-08-06T07:43:36;100247.75;;;36.50;33.60
44198;BME280;30157;55.512;37.764;2023-08-06T07:46:02;100191.84;;;36.59;33.33
44198;BME280;30157;55.512;37.764;2023-08-06T07:48:28;100209.47;;;36.88;33.19
44198;BME280;30157;55.512;37.764;2023-08-06T07:50:54;100236.13;;;36.74;33.06
44198;BME280;30157;55.512;37.764;2023-08-06T07:53:24;100193.19;;;36.55;33.34
44198;BME280;30157;55.512;37.764;2023-08-06T07:55:53;100191.88;;;35.91;33.94
44198;BME280;30157;55.512;37.764;2023-08-06T07:58:20;100235.91;;;36.35;33.59
44198;BME280;30157;55.512;37.764;2023-08-06T08:00:46;100224.81;;;36.71;33.08
44198;BME280;30157;55.512;37.764;2023-08-06T08:03:14;100217.25;;;36.82;33.00
44198;BME280;30157;55.512;37.764;2023-08-06T08:05:42;100202.84;;;36.74;33.42
44198;BME280;30157;55.512;37.764;2023-08-06T08:08:11;100224.34;;;36.92;33.20
44198;BME280;30157;55.512;37.764;2023-08-06T08:10:40;100188.31;;;36.99;33.42
44198;BME280;30157;55.512;37.764;2023-08-06T08:13:06;100223.41;;;37.49;32.10
44198;BME280;30157;55.512;37.764;2023-08-06T08:15:32;100201.47;;;37.36;32.08
44198;BME280;30157;55.512;37.764;2023-08-06T08:17:58;100185.41;;;37.26;32.17
44198;BME280;30157;55.512;37.764;2023-08-06T08:20:25;100218.56;;;37.11;33.17
44198;BME280;30157;55.512;37.764;2023-08-06T08:22:58;100195.19;;;37.19;32.16
44198;BME280;30157;55.512;37.764;2023-08-06T08:25:25;100198.38;;;37.55;31.90
44198;BME280;30157;55.512;37.764;2023-08-06T08:27:50;100216.72;;;37.76;32.19
44198;BME280;30157;55.512;37.764;2023-08-06T08:30:16;100104.16;;;37.03;31.80
44198;BME280;30157;55.512;37.764;2023-08-06T08:32:42;100220.34;;;37.60;31.86
44198;BME280;30157;55.512;37.764;2023-08-06T08:35:08;100201.22;;;37.62;31.88
44198;BME280;30157;55.512;37.764;2023-08-06T08:37:33;100229.06;;;37.87;32.48
44198;BME280;30157;55.512;37.764;2023-08-06T08:39:59;100221.50;;;37.66;32.05
44198;BME280;30157;55.512;37.764;2023-08-06T08:42:27;100199.00;;;37.65;32.13
44198;BME280;30157;55.512;37.764;2023-08-06T08:45:00;100183.25;;;37.69;31.64
44198;BME280;30157;55.512;37.764;2023-08-06T08:47:31;100160.34;;;37.48;32.13
44198;BME280;30157;55.512;37.764;2023-08-06T08:50:00;100131.31;;;37.18;32.03
44198;BME280;30157;55.512;37.764;2023-08-06T08:52:30;100125.22;;;37.15;32.14
44198;BME280;30157;55.512;37.764;2023-08-06T08:54:58;100206.88;;;37.36;32.30
44198;BME280;30157;55.512;37.764;2023-08-06T08:57:25;100185.59;;;37.72;31.22
44198;BME280;30157;55.512;37.764;2023-08-06T08:59:51;100187.16;;;38.38;30.75
44198;BME280;30157;55.512;37.764;2023-08-06T09:02:17;100150.25;;;38.05;30.54
44198;BME280;30157;55.512;37.764;2023-08-06T09:04:47;100216.50;;;37.94;30.73
44198;BME280;30157;55.512;37.764;2023-08-06T09:07:17;100181.59;;;37.60;30.60
44198;BME280;30157;55.512;37.764;2023-08-06T09:09:47;100204.88;;;37.86;30.94
44198;BME280;30157;55.512;37.764;2023-08-06T09:12:15;100197.88;;;37.52;31.10
44198;BME280;30157;55.512;37.764;2023-08-06T09:14:41;100200.13;;;37.88;30.73
44198;BME280;30157;55.512;37.764;2023-08-06T09:17:08;100189.63;;;37.93;31.12
44198;BME280;30157;55.512;37.764;2023-08-06T09:19:36;100192.16;;;38.18;30.45
44198;BME280;30157;55.512;37.764;2023-08-06T09:22:02;100195.94;;;38.86;29.69
44198;BME280;30157;55.512;37.764;2023-08-06T09:24:28;100100.41;;;37.91;29.85
44198;BME280;30157;55.512;37.764;2023-08-06T09:26:54;100191.06;;;38.35;29.55
44198;BME280;30157;55.512;37.764;2023-08-06T09:29:20;100137.72;;;37.81;30.58
44198;BME280;30157;55.512;37.764;2023-08-06T09:31:48;100187.91;;;37.92;30.82
44198;BME280;30157;55.512;37.764;2023-08-06T09:34:19;100189.31;;;38.11;30.63
44198;BME280;30157;55.512;37.764;2023-08-06T09:36:47;100152.19;;;38.28;30.88
44198;BME280;30157;55.512;37.764;2023-08-06T09:39:20;100161.59;;;38.55;29.69
44198;BME280;30157;55.512;37.764;2023-08-06T09:41:47;100178.72;;;38.32;29.96
44198;BME280;30157;55.512;37.764;2023-08-06T09:44:21;100185.72;;;38.19;29.94
44198;BME280;30157;55.512;37.764;2023-08-06T09:46:51;100158.97;;;38.24;30.48
44198;BME280;30157;55.512;37.764;2023-08-06T09:49:28;100146.09;;;37.94;29.90
44198;BME280;30157;55.512;37.764;2023-08-06T09:51:54;100152.41;;;38.41;29.68
44198;BME280;30157;55.512;37.764;2023-08-06T09:54:26;100102.91;;;37.61;30.19
44198;BME280;30157;55.512;37.764;2023-08-06T09:56:54;100124.06;;;37.66;30.86
44198;BME280;30157;55.512;37.764;2023-08-06T09:59:21;100147.75;;;37.64;30.31
44198;BME280;30157;55.512;37.764;2023-08-06T10:01:48;100069.47;;;37.54;30.08
44198;BME280;30157;55.512;37.764;2023-08-06T10:04:15;100152.63;;;38.31;29.89
44198;BME280;30157;55.512;37.764;2023-08-06T10:06:46;100144.22;;;38.26;30.52
44198;BME280;30157;55.512;37.764;2023-08-06T10:09:16;100124.31;;;38.57;29.56
44198;BME280;30157;55.512;37.764;2023-08-06T10:11:43;100149.00;;;38.62;28.79
44198;BME280;30157;55.512;37.764;2023-08-06T10:14:18;100139.09;;;38.31;29.42
44198;BME280;30157;55.512;37.764;2023-08-06T10:16:46;100140.97;;;38.31;29.35
44198;BME280;30157;55.512;37.764;2023-08-06T10:19:13;100077.38;;;38.19;29.58
44198;BME280;30157;55.512;37.764;2023-08-06T10:21:41;100065.13;;;38.23;29.25
44198;BME280;30157;55.512;37.764;2023-08-06T10:24:07;100139.72;;;38.95;28.90
44198;BME280;30157;55.512;37.764;2023-08-06T10:26:37;100088.38;;;38.40;29.47
44198;BME280;30157;55.512;37.764;2023-08-06T10:29:35;100133.66;;;38.55;29.00
44198;BME280;30157;55.512;37.764;2023-08-06T10:32:02;100099.91;;;38.57;28.98
44198;BME280;30157;55.512;37.764;2023-08-06T10:34:57;100138.25;;;38.31;29.72
44198;BME280;30157;55.512;37.764;2023-08-06T10:37:36;100137.88;;;38.34;28.96
44198;BME280;30157;55.512;37.764;2023-08-06T10:40:06;100105.19;;;38.36;28.86
44198;BME280;30157;55.512;37.764;2023-08-06T10:42:33;100025.22;;;38.16;28.91
44198;BME280;30157;55.512;37.764;2023-08-06T10:45:15;100129.75;;;38.95;28.55
44198;BME280;30157;55.512;37.764;2023-08-06T10:47:42;100126.75;;;38.90;28.34
44198;BME280;30157;55.512;37.764;2023-08-06T10:50:11;100068.38;;;38.94;27.41
44198;BME280;30157;55.512;37.764;2023-08-06T10:52:37;100134.38;;;39.25;28.15
44198;BME280;30157;55.512;37.764;2023-08-06T10:55:04;100115.91;;;39.05;28.34
44198;BME280;30157;55.512;37.764;2023-08-06T10:57:30;100120.78;;;39.10;29.02
44198;BME280;30157;55.512;37.764;2023-08-06T10:59:55;100144.63;;;39.14;28.70
44198;BME280;30157;55.512;37.764;2023-08-06T11:02:21;100125.56;;;39.23;27.48
44198;BME280;30157;55.512;37.764;2023-08-06T11:04:48;100109.44;;;39.51;27.36
44198;BME280;30157;55.512;37.764;2023-08-06T11:07:14;100100.00;;;38.72;29.48
44198;BME280;30157;55.512;37.764;2023-08-06T11:09:39;100099.31;;;37.38;30.78
44198;BME280;30157;55.512;37.764;2023-08-06T11:12:11;100111.84;;;38.02;30.81
44198;BME280;30157;55.512;37.764;2023-08-06T11:14:37;100116.13;;;38.42;30.28
44198;BME280;30157;55.512;37.764;2023-08-06T11:17:05;100100.78;;;38.58;29.70
44198;BME280;30157;55.512;37.764;2023-08-06T11:19:31;100119.72;;;38.96;29.61
44198;BME280;30157;55.512;37.764;2023-08-06T11:21:57;100032.09;;;37.49;30.51
44198;BME280;30157;55.512;37.764;2023-08-06T11:24:24;100094.84;;;35.98;33.03
44198;BME280;30157;55.512;37.764;2023-08-06T11:26:50;100117.94;;;34.71;35.41
44198;BME280;30157;55.512;37.764;2023-08-06T11:29:16;100109.34;;;35.11;34.73
44198;BME280;30157;55.512;37.764;2023-08-06T11:31:41;100007.16;;;35.00;33.28
44198;BME280;30157;55.512;37.764;2023-08-06T11:34:07;100103.41;;;37.17;31.40
44198;BME280;30157;55.512;37.764;2023-08-06T11:36:36;100090.41;;;38.15;30.23
44198;BME280;30157;55.512;37.764;2023-08-06T11:39:05;100090.63;;;38.37;29.73
44198;BME280;30157;55.512;37.764;2023-08-06T11:41:32;100104.91;;;38.30;29.60
44198;BME280;30157;55.512;37.764;2023-08-06T11:43:59;100080.69;;;36.87;31.94
44198;BME280;30157;55.512;37.764;2023-08-06T11:46:25;99991.84;;;35.01;33.67
44198;BME280;30157;55.512;37.764;2023-08-06T11:48:55;100098.56;;;36.05;33.83
44198;BME280;30157;55.512;37.764;2023-08-06T11:51:27;100104.13;;;37.11;31.94
44198;BME280;30157;55.512;37.764;2023-08-06T11:53:57;100098.06;;;37.57;30.67
44198;BME280;30157;55.512;37.764;2023-08-06T11:56:27;100007.59;;;37.74;29.92
44198;BME280;30157;55.512;37.764;2023-08-06T11:58:54;99986.94;;;37.73;29.69
44198;BME280;30157;55.512;37.764;2023-08-06T12:01:20;100088.31;;;38.48;28.67
44198;BME280;30157;55.512;37.764;2023-08-06T12:03:45;100067.28;;;38.51;29.07
44198;BME280;30157;55.512;37.764;2023-08-06T12:06:11;100083.75;;;38.26;29.08
44198;BME280;30157;55.512;37.764;2023-08-06T12:08:37;100031.66;;;38.15;30.46
44198;BME280;30157;55.512;37.764;2023-08-06T12:11:03;100068.72;;;38.61;28.83
44198;BME280;30157;55.512;37.764;2023-08-06T12:13:29;100084.38;;;38.74;29.30
44198;BME280;30157;55.512;37.764;2023-08-06T12:15:55;100082.16;;;38.55;29.61
44198;BME280;30157;55.512;37.764;2023-08-06T12:18:23;100077.13;;;37.82;30.93
44198;BME280;30157;55.512;37.764;2023-08-06T12:20:49;100018.88;;;37.23;30.79
44198;BME280;30157;55.512;37.764;2023-08-06T12:23:15;100077.47;;;36.25;32.98
44198;BME280;30157;55.512;37.764;2023-08-06T12:25:41;100066.84;;;36.48;32.37
44198;BME280;30157;55.512;37.764;2023-08-06T12:28:07;100055.53;;;36.61;32.19
44198;BME280;30157;55.512;37.764;2023-08-06T12:30:34;100074.97;;;36.81;31.95
44198;BME280;30157;55.512;37.764;2023-08-06T12:33:00;100069.91;;;36.45;32.79
44198;BME280;30157;55.512;37.764;2023-08-06T12:35:26;100057.53;;;36.76;32.66
44198;BME280;30157;55.512;37.764;2023-08-06T12:37:52;100072.94;;;36.59;33.06
44198;BME280;30157;55.512;37.764;2023-08-06T12:40:20;100064.00;;;36.33;33.08
44198;BME280;30157;55.512;37.764;2023-08-06T12:42:46;100057.06;;;36.23;33.62